TAF and METAR

Decoding for American and Canadian METARs and TAFs is not fully implemented.

Could not understand the following METAR

BGTL 280556Z AUTO 11011KT 9999 CLR M07/M09 A2966 RMK AO2 SLPNO T10711094 11064 21077 55000 TSNO $

TAF for Thule Air Base

TAF BGTL 271700Z 2717/2823 11010G15KT 9999 SCT100 510009 QNH2961INS BECMG 2720/2721 11015G20KT 9999 SCT050 OVC070 620703 520009 QNH2965INS TEMPO 2721/2812 11020G30KT BECMG 2811/2812 11010G15KT 9999 BKN030 OVC050 620305 510009 QNH2963INS BECMG 2817/2818 13009KT 8000 -SN BKN020 OVC040 620206 QNH2962INS TXM08/2806Z TNM14/2717Z LAST NO AMDS AFT 2719 NEXT 2809
Report created 27. okt 18:00

between 27. okt 18:00 - 29. okt 00:00

wind 10 knots from ESE (110°) with gusts up to 15 knots visibility > 10km scattered clouds (~50% cover) at 10000 feet
Thule Air Base in Greenland at 77m

Latest 5 airports